Time;durP1;ratioP1;P1;durP2;ratioP2;P2;SDS_P1;SDS_P2;PMS_P1;PMS_P2;Temp;Humidity;BMP_temperature;BMP_pressure;BME280_temperature;BME280_humidity;BME280_pressure;Samples;Min_cycle;Max_cycle;Signal;HPM_P1;HPM_P2
2023/01/01 00:02:08;;;;;;;305.80;203.97;;;11.40;78.10;11.40;96797.00;;;;5034188;28;20213;-83
2023/01/01 00:04:36;;;;;;;306.00;200.53;;;11.40;78.80;11.50;96800.00;;;;5035880;28;20239;-84
2023/01/01 00:07:04;;;;;;;327.20;217.70;;;11.40;78.00;11.50;96810.00;;;;5035260;28;20263;-85
2023/01/01 00:12:15;;;;;;;395.90;258.50;;;11.40;78.10;11.50;96816.00;;;;5036529;28;20282;-84
2023/01/01 00:14:43;;;;;;;419.47;293.57;;;11.40;78.20;11.50;96812.00;;;;5034120;28;20314;-85
2023/01/01 00:17:10;;;;;;;274.27;176.87;;;11.40;78.20;11.50;96817.00;;;;5036012;28;20224;-82
2023/01/01 00:19:39;;;;;;;336.03;224.37;;;11.40;78.20;11.50;96823.00;;;;5036398;28;20721;-83
2023/01/01 00:22:06;;;;;;;293.07;193.93;;;11.40;78.10;11.50;96821.00;;;;5036384;28;20212;-83
2023/01/01 00:24:33;;;;;;;314.40;202.73;;;11.50;78.30;11.50;96822.00;;;;5035691;28;20265;-83
2023/01/01 00:27:00;;;;;;;328.77;207.03;;;11.50;78.30;11.60;96828.00;;;;5035582;28;20205;-83
2023/01/01 00:29:27;;;;;;;339.73;227.23;;;11.50;78.40;11.60;96830.00;;;;5036838;28;20236;-84
2023/01/01 00:31:54;;;;;;;392.07;263.87;;;11.50;78.30;11.60;96817.00;;;;5035398;28;20201;-84
2023/01/01 00:34:21;;;;;;;541.60;397.90;;;11.50;78.20;11.60;96823.00;;;;5034135;28;20343;-84
2023/01/01 00:36:50;;;;;;;659.80;501.83;;;11.50;78.90;11.60;96821.00;;;;5035412;28;20220;-84
2023/01/01 00:39:17;;;;;;;676.37;516.93;;;11.50;78.20;11.60;96826.00;;;;5036858;28;20292;-85
2023/01/01 00:41:44;;;;;;;733.83;558.37;;;11.50;78.10;11.60;96823.00;;;;5038199;28;20283;-84
2023/01/01 00:44:11;;;;;;;785.77;577.20;;;11.50;78.10;11.60;96833.00;;;;5037595;28;20229;-84
2023/01/01 00:46:38;;;;;;;787.63;591.87;;;11.50;78.10;11.60;96828.00;;;;5038373;28;20207;-84
2023/01/01 00:49:05;;;;;;;764.17;581.03;;;11.50;78.20;11.60;96821.00;;;;5038067;28;20197;-84
2023/01/01 00:51:32;;;;;;;778.40;587.30;;;11.50;78.10;11.60;96821.00;;;;5036561;28;20225;-85
2023/01/01 00:54:01;;;;;;;745.27;571.90;;;11.50;78.00;11.60;96823.00;;;;5038950;28;20228;-83
2023/01/01 00:56:28;;;;;;;791.10;597.23;;;11.50;77.90;11.60;96824.00;;;;5040094;28;20627;-83
2023/01/01 00:58:55;;;;;;;734.33;559.80;;;11.50;77.90;11.60;96810.00;;;;5039361;28;20257;-84
2023/01/01 01:01:22;;;;;;;748.90;566.67;;;11.50;78.00;11.50;96825.00;;;;5038825;28;20279;-85
2023/01/01 01:03:49;;;;;;;701.60;537.73;;;11.50;78.00;11.50;96824.00;;;;5037506;28;20244;-83
2023/01/01 01:06:20;;;;;;;699.90;532.57;;;11.50;78.00;11.50;96834.00;;;;5037358;28;20766;-83
2023/01/01 01:08:48;;;;;;;693.73;528.00;;;11.50;78.00;11.50;96845.00;;;;5037884;28;20197;-84
2023/01/01 01:11:19;;;;;;;679.33;523.13;;;11.50;78.00;11.50;96850.00;;;;5036935;28;20733;-85
2023/01/01 01:13:49;;;;;;;671.90;509.53;;;11.50;78.00;11.50;96846.00;;;;5038591;28;20300;-84
2023/01/01 01:16:19;;;;;;;664.83;501.17;;;11.50;78.10;11.50;96843.00;;;;5039582;28;20248;-84
2023/01/01 01:18:49;;;;;;;634.17;485.10;;;11.50;78.10;11.50;96845.00;;;;5039341;28;20201;-83
2023/01/01 01:21:18;;;;;;;625.23;469.40;;;11.50;78.10;11.50;96851.00;;;;5037324;28;21309;-84
2023/01/01 01:23:46;;;;;;;612.13;462.60;;;11.50;78.10;11.50;96857.00;;;;5038874;28;20232;-84
2023/01/01 01:26:20;;;;;;;613.73;459.53;;;11.50;78.20;11.40;96856.00;;;;5039804;28;20213;-83
2023/01/01 01:28:47;;;;;;;603.73;464.63;;;11.40;78.00;11.40;96869.00;;;;5039097;28;20283;-85
2023/01/01 01:31:15;;;;;;;580.67;439.33;;;11.40;78.00;11.40;96870.00;;;;5037549;28;20208;-84
2023/01/01 01:33:44;;;;;;;544.70;409.90;;;11.40;78.20;11.40;96871.00;;;;5035924;28;20248;-84
2023/01/01 01:36:12;;;;;;;550.33;407.53;;;11.40;78.30;11.50;96880.00;;;;5035227;28;20201;-84
2023/01/01 01:38:40;;;;;;;545.47;400.83;;;11.50;78.50;11.50;96883.00;;;;5037330;28;20280;-84
2023/01/01 01:41:08;;;;;;;519.53;381.37;;;11.40;78.40;11.50;96884.00;;;;5035666;28;20232;-84
2023/01/01 01:43:54;;;;;;;505.07;372.00;;;11.40;78.30;11.50;96891.00;;;;5035276;28;20714;-84
2023/01/01 01:46:37;;;;;;;480.00;345.07;;;11.50;78.20;11.50;96880.00;;;;5036694;28;21179;-84
2023/01/01 01:49:12;;;;;;;461.00;336.57;;;11.40;78.30;11.50;96880.00;;;;5036832;28;20279;-85
2023/01/01 01:51:40;;;;;;;478.30;337.90;;;11.50;78.30;11.50;96884.00;;;;5036879;28;20228;-84
2023/01/01 01:54:16;;;;;;;445.53;322.23;;;11.50;78.20;11.50;96871.00;;;;5037168;28;20664;-84
2023/01/01 01:56:49;;;;;;;442.87;321.03;;;11.40;78.10;11.40;96872.00;;;;5035470;28;20288;-84
2023/01/01 01:59:21;;;;;;;434.13;312.63;;;11.40;78.00;11.40;96871.00;;;;5044858;28;20214;-84
2023/01/01 02:01:48;;;;;;;416.87;293.73;;;11.40;78.00;11.40;96871.00;;;;5037843;28;20246;-84
2023/01/01 02:04:16;;;;;;;416.30;289.23;;;11.40;78.00;11.40;96860.00;;;;5036991;28;20359;-85
2023/01/01 02:06:45;;;;;;;444.67;305.17;;;11.40;78.60;11.30;96863.00;;;;5035871;28;20292;-85
2023/01/01 02:09:13;;;;;;;412.97;295.07;;;11.30;77.90;11.30;96862.00;;;;5037121;28;20626;-84
2023/01/01 02:11:40;;;;;;;421.80;300.67;;;11.40;77.90;11.30;96862.00;;;;5037927;28;20269;-84
2023/01/01 02:14:08;;;;;;;427.87;294.87;;;11.30;77.70;11.30;96860.00;;;;5037615;28;20315;-85
2023/01/01 02:16:46;;;;;;;417.27;288.47;;;11.30;77.80;11.30;96851.00;;;;5036919;28;20284;-83
2023/01/01 02:19:28;;;;;;;420.40;276.67;;;11.30;77.90;11.30;96859.00;;;;5037533;28;20236;-84
2023/01/01 02:22:09;;;;;;;403.60;266.07;;;11.30;78.10;11.30;96854.00;;;;5036372;28;20275;-84
2023/01/01 02:25:04;;;;;;;359.50;249.80;;;11.30;78.20;11.30;96846.00;;;;5035775;28;20225;-84
2023/01/01 02:27:46;;;;;;;365.00;252.90;;;11.30;78.10;11.30;96841.00;;;;5035305;28;20268;-84
2023/01/01 02:30:16;;;;;;;374.23;254.07;;;11.30;78.10;11.20;96843.00;;;;5036619;28;20251;-84
2023/01/01 02:32:49;;;;;;;372.73;259.50;;;11.20;77.90;11.20;96849.00;;;;5035720;28;20216;-83
2023/01/01 02:35:35;;;;;;;415.17;261.13;;;11.20;77.70;11.20;96856.00;;;;5033845;28;20232;-84
2023/01/01 02:38:10;;;;;;;362.27;249.20;;;11.20;77.70;11.20;96855.00;;;;5037463;28;20296;-84
2023/01/01 02:40:45;;;;;;;358.47;245.90;;;11.20;77.80;11.10;96858.00;;;;5035746;28;20193;-85
2023/01/01 02:43:12;;;;;;;346.33;238.93;;;11.20;77.80;11.10;96848.00;;;;5035161;28;20275;-83
2023/01/01 02:45:40;;;;;;;320.60;221.93;;;11.10;77.70;11.10;96843.00;;;;5035840;28;20319;-84
2023/01/01 02:48:40;;;;;;;302.97;203.33;;;11.10;77.70;11.10;96846.00;;;;5036599;28;20207;-84
2023/01/01 02:51:22;;;;;;;302.20;211.00;;;11.10;77.70;11.00;96850.00;;;;5035603;28;20280;-84
2023/01/01 02:54:01;;;;;;;320.47;219.17;;;11.10;77.90;11.00;96845.00;;;;5035986;28;20722;-83
2023/01/01 02:56:40;;;;;;;335.73;217.47;;;11.10;77.70;11.00;96848.00;;;;5037475;28;20236;-83
2023/01/01 03:02:26;;;;;;;281.87;187.03;;;11.10;77.50;10.90;96845.00;;;;5034342;28;20255;-85
2023/01/01 03:05:08;;;;;;;300.87;186.47;;;11.00;77.40;10.90;96855.00;;;;5032752;28;20311;-85
2023/01/01 03:07:50;;;;;;;263.67;173.67;;;11.00;77.50;10.90;96857.00;;;;5036017;28;20242;-84
2023/01/01 03:10:24;;;;;;;258.50;173.90;;;11.00;77.40;10.80;96851.00;;;;5035528;28;20237;-84
2023/01/01 03:13:00;;;;;;;269.83;181.10;;;10.90;77.40;10.80;96852.00;;;;5035938;28;20230;-84
2023/01/01 03:15:37;;;;;;;289.33;179.83;;;10.90;77.50;10.80;96859.00;;;;5030716;28;20247;-84
2023/01/01 03:18:12;;;;;;;257.77;171.43;;;10.90;77.80;10.80;96853.00;;;;5033417;28;20504;-84
2023/01/01 03:20:45;;;;;;;265.57;171.17;;;10.80;77.70;10.80;96859.00;;;;5035128;28;20377;-84
2023/01/01 03:23:19;;;;;;;275.87;175.17;;;10.80;78.50;10.80;96861.00;;;;5036199;28;20240;-84
2023/01/01 03:25:52;;;;;;;257.83;168.93;;;10.80;77.80;10.70;96862.00;;;;5035152;28;20686;-83
2023/01/01 03:28:25;;;;;;;285.87;174.27;;;10.80;77.80;10.70;96868.00;;;;5035048;28;20307;-84
2023/01/01 03:30:54;;;;;;;267.50;179.47;;;10.80;78.00;10.70;96871.00;;;;5035474;28;20670;-84
2023/01/01 03:33:30;;;;;;;248.53;162.63;;;10.80;77.90;10.70;96871.00;;;;5036294;28;20284;-84
2023/01/01 03:36:02;;;;;;;275.53;175.17;;;10.70;77.80;10.70;96868.00;;;;5035225;28;20307;-84
2023/01/01 03:38:37;;;;;;;274.83;168.77;;;10.70;77.90;10.70;96865.00;;;;5035660;28;20288;-84
2023/01/01 03:41:11;;;;;;;250.73;161.17;;;10.70;77.90;10.70;96872.00;;;;5036494;28;20304;-84
2023/01/01 03:43:48;;;;;;;239.40;155.67;;;10.70;78.00;10.60;96871.00;;;;5033706;28;20224;-84
2023/01/01 03:46:22;;;;;;;259.47;164.37;;;10.70;78.00;10.60;96869.00;;;;5038851;28;20273;-84
2023/01/01 03:48:57;;;;;;;243.43;159.70;;;10.70;78.00;10.60;96866.00;;;;5040210;28;20196;-83
2023/01/01 03:51:45;;;;;;;241.13;159.77;;;10.70;78.00;10.60;96866.00;;;;5039968;28;20295;-84
2023/01/01 03:54:26;;;;;;;241.03;156.07;;;10.60;78.00;10.60;96871.00;;;;5043231;28;20660;-84
2023/01/01 03:57:06;;;;;;;245.53;155.87;;;10.70;78.10;10.60;96871.00;;;;5042456;28;20221;-84
2023/01/01 03:59:43;;;;;;;235.43;152.83;;;10.60;78.00;10.60;96871.00;;;;5037793;28;20243;-84
2023/01/01 04:02:16;;;;;;;240.53;155.57;;;10.60;77.90;10.50;96883.00;;;;5035873;28;20260;-83
2023/01/01 04:04:46;;;;;;;235.53;155.33;;;10.60;77.90;10.50;96885.00;;;;5035953;28;20260;-84
2023/01/01 04:07:13;;;;;;;244.60;158.77;;;10.60;77.90;10.50;96889.00;;;;5032656;28;20647;-84
2023/01/01 04:09:47;;;;;;;248.07;159.20;;;10.60;77.70;10.50;96883.00;;;;5034458;28;20663;-84
2023/01/01 04:12:16;;;;;;;225.30;151.77;;;10.60;77.70;10.50;96881.00;;;;5034562;28;20565;-84
2023/01/01 04:14:44;;;;;;;211.07;139.03;;;10.50;77.70;10.40;96875.00;;;;5037285;28;20248;-84
2023/01/01 04:17:13;;;;;;;228.57;149.10;;;10.50;77.90;10.50;96886.00;;;;5039737;28;20291;-83
2023/01/01 04:19:40;;;;;;;223.50;147.93;;;10.50;78.10;10.40;96885.00;;;;5039331;28;20628;-84
2023/01/01 04:22:09;;;;;;;203.80;133.90;;;10.50;78.00;10.40;96880.00;;;;5038737;28;21182;-84
2023/01/01 04:24:36;;;;;;;205.67;138.53;;;10.50;78.20;10.40;96879.00;;;;5040196;28;20231;-84
2023/01/01 04:27:04;;;;;;;207.43;136.27;;;10.50;78.20;10.40;96884.00;;;;5039104;28;20322;-84
2023/01/01 04:29:31;;;;;;;220.77;139.60;;;10.50;78.10;10.40;96885.00;;;;5039845;28;20805;-84
2023/01/01 04:31:58;;;;;;;206.63;135.00;;;10.40;78.00;10.40;96891.00;;;;5038582;28;20303;-84
2023/01/01 04:34:25;;;;;;;226.27;135.80;;;10.40;78.00;10.30;96883.00;;;;5039563;28;20647;-84
2023/01/01 04:36:52;;;;;;;203.80;131.27;;;10.40;78.00;10.30;96885.00;;;;5038571;28;20215;-84
2023/01/01 04:39:21;;;;;;;199.93;133.63;;;10.40;78.00;10.30;96888.00;;;;5039061;28;20296;-84
2023/01/01 04:41:48;;;;;;;211.13;128.23;;;10.40;77.90;10.30;96892.00;;;;5038569;28;20288;-84
2023/01/01 04:44:15;;;;;;;214.87;127.37;;;10.40;77.90;10.30;96893.00;;;;5037949;28;20583;-82
2023/01/01 04:46:42;;;;;;;194.23;126.83;;;10.40;77.90;10.20;96892.00;;;;5038273;28;20217;-84
2023/01/01 04:49:09;;;;;;;194.87;130.30;;;10.30;77.80;10.20;96888.00;;;;5038347;28;21336;-84
2023/01/01 04:51:36;;;;;;;190.13;127.13;;;10.30;77.70;10.20;96888.00;;;;5036724;28;20790;-84
2023/01/01 04:54:04;;;;;;;185.87;126.43;;;10.30;77.60;10.20;96894.00;;;;5038106;28;20327;-84
2023/01/01 04:56:32;;;;;;;183.77;123.00;;;10.30;77.60;10.10;96881.00;;;;5038326;28;21326;-84
2023/01/01 04:58:59;;;;;;;221.53;125.03;;;10.20;77.50;10.10;96893.00;;;;5037884;28;20713;-84
2023/01/01 05:01:29;;;;;;;179.93;123.03;;;10.20;77.40;10.00;96892.00;;;;5036571;28;20296;-84
2023/01/01 05:03:58;;;;;;;209.47;128.97;;;10.20;77.50;10.00;96901.00;;;;5040590;28;20236;-83
2023/01/01 05:06:27;;;;;;;189.93;123.57;;;10.20;77.70;10.00;96909.00;;;;5039715;28;20256;-84
2023/01/01 05:08:56;;;;;;;198.00;129.03;;;10.10;77.70;10.00;96904.00;;;;5036332;28;20193;-82
2023/01/01 05:11:27;;;;;;;195.30;129.70;;;10.10;77.80;10.00;96915.00;;;;5038559;28;20197;-84
2023/01/01 05:13:59;;;;;;;201.43;129.83;;;10.10;77.80;10.00;96913.00;;;;5037721;28;20256;-84
2023/01/01 05:16:29;;;;;;;207.87;130.57;;;10.10;77.90;10.00;96897.00;;;;5038045;28;20383;-83
2023/01/01 05:18:56;;;;;;;201.30;131.03;;;10.10;78.10;10.00;96887.00;;;;5036104;28;20284;-84
2023/01/01 05:21:26;;;;;;;207.97;130.17;;;10.10;78.30;10.00;96901.00;;;;5038677;28;20207;-83
2023/01/01 05:23:55;;;;;;;199.50;131.23;;;10.10;78.40;10.00;96910.00;;;;5038533;28;20231;-84
2023/01/01 05:26:26;;;;;;;194.37;128.53;;;10.10;78.40;10.00;96911.00;;;;5038019;28;20232;-84
2023/01/01 05:28:53;;;;;;;200.97;126.83;;;10.10;79.10;10.00;96906.00;;;;5038344;28;20201;-84
2023/01/01 05:31:25;;;;;;;192.43;126.60;;;10.10;78.50;10.10;96909.00;;;;5039208;28;20205;-84
2023/01/01 05:33:53;;;;;;;187.73;124.77;;;10.10;78.50;10.00;96904.00;;;;5037004;28;20344;-84
2023/01/01 05:36:23;;;;;;;185.03;123.90;;;10.10;79.20;10.10;96916.00;;;;5037698;28;20300;-84
2023/01/01 05:38:51;;;;;;;169.57;116.90;;;10.10;78.60;10.00;96923.00;;;;5037694;28;20319;-84
2023/01/01 05:41:20;;;;;;;185.67;123.17;;;10.10;78.60;10.00;96921.00;;;;5038125;28;20295;-84
2023/01/01 05:43:48;;;;;;;175.90;116.70;;;10.10;78.40;10.00;96919.00;;;;5036269;28;20251;-84
2023/01/01 05:46:18;;;;;;;170.83;116.40;;;10.10;78.20;10.00;96914.00;;;;5036898;28;20254;-84
2023/01/01 05:48:47;;;;;;;169.83;114.77;;;10.10;78.10;10.00;96914.00;;;;5037424;28;20303;-84
2023/01/01 05:51:19;;;;;;;170.80;117.83;;;10.10;78.10;10.00;96917.00;;;;5037222;28;20316;-84
2023/01/01 05:53:47;;;;;;;158.30;108.20;;;10.00;78.10;9.90;96919.00;;;;5037138;28;20252;-84
2023/01/01 05:56:16;;;;;;;164.87;105.57;;;10.00;78.20;9.90;96926.00;;;;5037771;28;20218;-84
2023/01/01 05:58:44;;;;;;;152.73;104.83;;;10.00;78.30;9.90;96933.00;;;;5037119;28;20201;-84
2023/01/01 06:01:14;;;;;;;154.07;102.87;;;10.00;78.20;9.90;96932.00;;;;5037980;28;20241;-84
2023/01/01 06:03:43;;;;;;;161.70;106.20;;;10.00;78.10;9.90;96926.00;;;;5037806;28;20228;-83
2023/01/01 06:06:17;;;;;;;167.70;109.10;;;10.00;77.90;9.80;96933.00;;;;5037646;28;20323;-84
2023/01/01 06:08:50;;;;;;;159.13;105.13;;;10.00;77.80;9.80;96946.00;;;;5036224;28;20201;-84
2023/01/01 06:11:18;;;;;;;163.53;106.67;;;9.90;77.80;9.80;96937.00;;;;5035945;28;20201;-84
2023/01/01 06:13:45;;;;;;;168.77;110.60;;;9.90;77.80;9.80;96936.00;;;;5036240;28;20750;-84
2023/01/01 06:16:14;;;;;;;171.93;114.23;;;9.90;77.80;9.80;96947.00;;;;5036664;28;21229;-84
2023/01/01 06:18:41;;;;;;;170.23;114.10;;;9.90;77.90;9.70;96941.00;;;;5037560;28;20232;-84
2023/01/01 06:21:13;;;;;;;168.80;115.70;;;9.90;77.80;9.70;96940.00;;;;5036190;28;20735;-84
2023/01/01 06:23:41;;;;;;;183.13;122.90;;;9.90;77.70;9.70;96951.00;;;;5036886;28;20308;-84
2023/01/01 06:26:11;;;;;;;198.27;124.00;;;9.80;77.60;9.60;96967.00;;;;5036732;28;20643;-84
2023/01/01 06:28:39;;;;;;;186.20;122.73;;;9.80;77.70;9.60;96956.00;;;;5037035;28;20223;-84
2023/01/01 06:31:09;;;;;;;198.27;118.87;;;9.80;77.80;9.60;96953.00;;;;5037266;28;20300;-84
2023/01/01 06:33:38;;;;;;;170.47;113.83;;;9.70;77.70;9.60;96952.00;;;;5036874;28;20248;-84
2023/01/01 06:36:09;;;;;;;198.37;114.70;;;9.70;77.80;9.60;96953.00;;;;5036404;28;20275;-85
2023/01/01 06:38:40;;;;;;;159.83;110.67;;;9.70;77.90;9.50;96952.00;;;;5037429;28;20758;-84
2023/01/01 06:41:11;;;;;;;164.83;112.13;;;9.70;78.00;9.60;96960.00;;;;5036183;28;20271;-84
2023/01/01 06:43:39;;;;;;;173.83;114.43;;;9.70;78.10;9.50;96962.00;;;;5037717;28;20832;-84
2023/01/01 06:46:12;;;;;;;171.93;114.57;;;9.70;78.00;9.50;96950.00;;;;5037267;28;20248;-84
2023/01/01 06:48:40;;;;;;;172.40;110.63;;;9.60;77.80;9.50;96957.00;;;;5037346;28;20319;-84
2023/01/01 06:51:09;;;;;;;191.77;111.60;;;9.60;77.80;9.50;96953.00;;;;5036790;28;20276;-85
2023/01/01 06:53:38;;;;;;;168.60;112.93;;;9.60;77.70;9.50;96958.00;;;;5035595;28;20311;-82
2023/01/01 06:56:06;;;;;;;173.63;107.90;;;9.60;77.80;9.40;96968.00;;;;5036984;28;20296;-84
2023/01/01 06:58:34;;;;;;;165.77;110.87;;;9.60;77.80;9.40;96969.00;;;;5036347;28;20292;-84
2023/01/01 07:01:07;;;;;;;194.20;115.13;;;9.50;77.70;9.40;96969.00;;;;5035730;28;20299;-84
2023/01/01 07:03:34;;;;;;;173.60;111.10;;;9.50;77.70;9.40;96983.00;;;;5036079;28;20235;-84
2023/01/01 07:06:01;;;;;;;191.90;110.10;;;9.50;77.90;9.40;96989.00;;;;5035731;28;20316;-84
2023/01/01 07:08:28;;;;;;;138.83;95.63;;;9.50;78.00;9.40;96992.00;;;;5035387;28;20303;-84
2023/01/01 07:10:57;;;;;;;169.13;95.27;;;9.50;78.20;9.40;96997.00;;;;5035137;28;20240;-84
2023/01/01 07:13:25;;;;;;;140.33;88.77;;;9.50;78.40;9.40;96991.00;;;;5035447;28;20197;-84
2023/01/01 07:15:52;;;;;;;137.37;95.40;;;9.50;78.50;9.40;96997.00;;;;5036197;28;20219;-83
2023/01/01 07:18:20;;;;;;;141.67;95.47;;;9.50;78.40;9.40;96987.00;;;;5037496;28;20205;-84
2023/01/01 07:20:50;;;;;;;147.77;95.03;;;9.50;78.20;9.40;97001.00;;;;5036798;28;20201;-84
2023/01/01 07:23:18;;;;;;;131.63;91.10;;;9.50;78.10;9.40;97009.00;;;;5035450;28;20292;-84
2023/01/01 07:25:45;;;;;;;135.30;92.17;;;9.50;78.10;9.40;97012.00;;;;5035740;28;20288;-84
2023/01/01 07:28:13;;;;;;;135.83;92.37;;;9.50;78.20;9.40;97012.00;;;;5037290;28;20200;-84
2023/01/01 07:30:40;;;;;;;132.87;88.57;;;9.50;78.20;9.40;97018.00;;;;5037821;28;20681;-84
2023/01/01 07:33:12;;;;;;;123.00;86.93;;;9.50;78.30;9.40;97024.00;;;;5037342;28;20250;-83
2023/01/01 07:35:39;;;;;;;128.47;82.63;;;9.50;78.40;9.40;97031.00;;;;5035227;28;20207;-84
2023/01/01 07:38:07;;;;;;;116.83;80.60;;;9.50;78.50;9.40;97033.00;;;;5036003;28;20215;-84
2023/01/01 07:40:34;;;;;;;113.80;79.07;;;9.50;78.50;9.40;97034.00;;;;5036529;28;21302;-84
2023/01/01 07:43:01;;;;;;;113.87;78.77;;;9.50;78.50;9.40;97031.00;;;;5036106;28;20683;-84
2023/01/01 07:45:30;;;;;;;114.67;77.13;;;9.50;78.60;9.40;97034.00;;;;5034822;28;20315;-84
2023/01/01 07:47:58;;;;;;;117.50;73.70;;;9.50;78.40;9.40;97040.00;;;;5038481;28;20240;-84
2023/01/01 07:50:29;;;;;;;129.67;73.23;;;9.50;78.40;9.50;97039.00;;;;5040867;28;21045;-84
2023/01/01 07:52:56;;;;;;;103.17;64.50;;;9.50;78.60;9.50;97040.00;;;;5041163;28;20205;-84
2023/01/01 07:55:24;;;;;;;96.77;61.77;;;9.50;78.80;9.50;97041.00;;;;5041502;28;20725;-84
2023/01/01 07:57:51;;;;;;;90.70;60.23;;;9.50;78.90;9.50;97036.00;;;;5038550;28;20241;-84
2023/01/01 08:00:21;;;;;;;96.53;63.03;;;9.50;79.10;9.60;97035.00;;;;5039910;28;20292;-84
2023/01/01 08:02:49;;;;;;;90.80;61.60;;;9.60;79.30;9.60;97037.00;;;;5042781;28;20303;-84
2023/01/01 08:05:17;;;;;;;93.17;63.07;;;9.60;79.30;9.60;97035.00;;;;5043930;28;20287;-84
2023/01/01 08:07:47;;;;;;;90.77;62.80;;;9.60;79.30;9.70;97031.00;;;;5042411;28;20588;-84
2023/01/01 08:10:14;;;;;;;93.73;60.27;;;9.70;79.50;9.70;97036.00;;;;5044557;28;20235;-87
2023/01/01 08:12:42;;;;;;;81.20;56.60;;;9.70;79.60;9.80;97042.00;;;;5043973;28;20205;-87
2023/01/01 08:15:11;;;;;;;76.50;53.67;;;9.70;79.80;9.90;97048.00;;;;5042376;28;20327;-88
2023/01/01 08:17:39;;;;;;;80.33;55.77;;;9.80;80.00;9.90;97053.00;;;;5039855;28;20212;-88
2023/01/01 08:20:10;;;;;;;73.50;51.50;;;9.90;80.00;10.10;97074.00;;;;5039065;28;20197;-88
2023/01/01 08:22:37;;;;;;;77.07;51.87;;;9.90;80.00;10.10;97072.00;;;;5039417;28;20299;-88
2023/01/01 08:25:05;;;;;;;81.03;50.57;;;10.00;80.20;10.20;97055.00;;;;5039960;28;20229;-88
2023/01/01 08:27:32;;;;;;;59.77;43.20;;;10.00;80.30;10.30;97063.00;;;;5038896;28;20318;-88
2023/01/01 08:29:59;;;;;;;58.37;41.00;;;10.10;80.70;10.40;97065.00;;;;5037709;28;20284;-88
2023/01/01 08:32:27;;;;;;;47.90;35.17;;;10.20;80.80;10.50;97054.00;;;;5039727;28;20219;-88
2023/01/01 08:34:54;;;;;;;46.63;34.73;;;10.20;81.00;10.60;97057.00;;;;5039162;28;20268;-87
2023/01/01 08:37:23;;;;;;;51.63;36.43;;;10.20;81.20;10.70;97050.00;;;;5038846;28;20200;-88
2023/01/01 08:39:51;;;;;;;60.23;40.60;;;10.50;81.50;10.80;97052.00;;;;5038535;28;20287;-88
2023/01/01 08:42:19;;;;;;;48.97;34.97;;;10.50;81.40;10.90;97054.00;;;;5039112;28;20205;-88
2023/01/01 08:44:46;;;;;;;47.30;34.07;;;10.60;81.50;11.10;97057.00;;;;5039067;28;20239;-88
2023/01/01 08:47:19;;;;;;;46.33;32.07;;;10.70;81.50;11.20;97067.00;;;;5037303;28;20334;-88
2023/01/01 08:49:46;;;;;;;38.07;28.13;;;10.80;81.50;11.20;97065.00;;;;5038663;28;20228;-89
2023/01/01 08:52:14;;;;;;;42.87;29.83;;;10.90;81.70;11.30;97064.00;;;;5038907;28;20209;-88
2023/01/01 08:54:43;;;;;;;42.90;29.23;;;11.00;81.70;11.40;97067.00;;;;5038871;28;20253;-88
2023/01/01 08:57:11;;;;;;;34.70;24.40;;;11.10;81.60;11.50;97072.00;;;;5038713;28;20319;-88
2023/01/01 08:59:38;;;;;;;30.53;21.63;;;11.20;81.60;11.60;97074.00;;;;5037980;28;20217;-88
2023/01/01 09:02:06;;;;;;;23.43;16.03;;;11.30;81.60;11.70;97079.00;;;;5038929;28;20228;-88
2023/01/01 09:04:34;;;;;;;17.80;14.33;;;11.30;81.30;11.80;97072.00;;;;5038248;28;20699;-88
2023/01/01 09:07:01;;;;;;;14.43;12.03;;;11.50;81.10;11.90;97078.00;;;;5038224;28;20777;-88
2023/01/01 09:09:28;;;;;;;14.27;11.30;;;11.60;81.00;12.00;97072.00;;;;5037617;28;20279;-89
2023/01/01 09:12:02;;;;;;;10.80;9.57;;;11.70;80.70;12.20;97080.00;;;;5039468;28;20236;-88
2023/01/01 09:14:30;;;;;;;13.03;9.87;;;11.80;80.60;12.30;97086.00;;;;5037956;28;21402;-88
2023/01/01 09:16:58;;;;;;;10.23;8.60;;;11.90;80.40;12.40;97095.00;;;;5037485;28;20213;-88
2023/01/01 09:19:25;;;;;;;11.43;8.80;;;12.00;80.20;12.50;97093.00;;;;5038840;28;20734;-87
2023/01/01 09:21:52;;;;;;;13.40;8.63;;;12.10;80.10;12.60;97094.00;;;;5038703;28;20213;-88
2023/01/01 09:24:19;;;;;;;9.93;8.87;;;12.20;80.00;12.70;97091.00;;;;5037276;28;20229;-88
2023/01/01 09:26:47;;;;;;;11.17;9.00;;;12.30;80.00;12.70;97093.00;;;;5039493;28;20320;-88
2023/01/01 09:29:19;;;;;;;10.40;8.40;;;12.40;79.90;12.80;97096.00;;;;5037911;28;20209;-87
2023/01/01 09:31:47;;;;;;;9.40;8.07;;;12.50;79.50;12.90;97096.00;;;;5037911;28;20205;-88
2023/01/01 09:34:15;;;;;;;8.57;7.17;;;12.60;79.20;13.00;97097.00;;;;5038427;28;20220;-88
2023/01/01 09:36:42;;;;;;;10.63;8.40;;;12.60;79.10;13.10;97101.00;;;;5037810;28;20262;-87
2023/01/01 09:39:13;;;;;;;9.53;7.73;;;12.70;79.10;13.20;97101.00;;;;5039233;28;20205;-88
2023/01/01 09:41:58;;;;;;;9.70;7.90;;;12.80;79.30;13.30;97103.00;;;;5037164;28;20538;-87
2023/01/01 09:44:59;;;;;;;7.67;5.73;;;12.90;79.50;13.50;97109.00;;;;5036890;28;20305;-87
2023/01/01 09:47:30;;;;;;;4.43;4.03;;;13.00;79.10;13.60;97107.00;;;;5034915;28;20726;-88
2023/01/01 09:50:05;;;;;;;3.80;3.50;;;13.20;79.10;13.80;97103.00;;;;5035600;28;20216;-89
2023/01/01 09:52:44;;;;;;;3.33;3.03;;;13.30;78.80;14.10;97105.00;;;;5037391;28;20200;-87
2023/01/01 09:55:25;;;;;;;3.10;2.70;;;13.50;79.00;14.30;97085.00;;;;5038363;28;20228;-87
2023/01/01 09:57:52;;;;;;;4.03;2.80;;;13.70;79.10;14.60;97085.00;;;;5038203;28;20275;-87
2023/01/01 10:00:21;;;;;;;2.20;2.00;;;13.90;79.30;14.80;97091.00;;;;5038519;28;20259;-88
2023/01/01 10:03:25;;;;;;;2.60;1.80;;;14.20;79.10;15.10;97105.00;;;;5036289;28;20553;-87
2023/01/01 10:06:02;;;;;;;4.87;2.67;;;14.40;77.80;15.30;97098.00;;;;5036960;28;20311;-87
2023/01/01 10:08:48;;;;;;;12.53;2.63;;;14.70;78.70;15.60;97090.00;;;;5037022;28;20267;-87
2023/01/01 10:11:26;;;;;;;9.93;2.70;;;15.00;79.10;15.80;97083.00;;;;5037493;28;20286;-88
2023/01/01 10:13:58;;;;;;;6.30;2.73;;;15.20;79.30;16.00;97079.00;;;;5036669;28;20260;-88
2023/01/01 10:16:36;;;;;;;8.70;2.70;;;15.50;79.50;16.20;97085.00;;;;5036188;28;20266;-87
2023/01/01 10:19:22;;;;;;;18.90;3.13;;;15.70;78.50;16.40;97081.00;;;;5036834;28;20219;-88
2023/01/01 10:21:52;;;;;;;6.67;2.60;;;15.90;78.30;16.60;97082.00;;;;5036063;28;20194;-89
2023/01/01 10:24:37;;;;;;;4.10;2.40;;;16.20;78.40;16.80;97077.00;;;;5037570;28;20311;-88
2023/01/01 10:27:06;;;;;;;32.10;4.23;;;16.40;77.60;17.00;97079.00;;;;5036208;28;20252;-87
2023/01/01 10:29:44;;;;;;;5.20;2.50;;;16.60;77.90;17.20;97079.00;;;;5037258;28;20205;-87
2023/01/01 10:32:26;;;;;;;6.47;2.90;;;16.80;76.40;17.40;97076.00;;;;5036787;28;20284;-87
2023/01/01 10:34:53;;;;;;;1.87;1.77;;;17.00;75.10;17.50;97082.00;;;;5036469;28;20229;-87
2023/01/01 10:37:21;;;;;;;1.70;1.60;;;17.10;75.30;17.70;97084.00;;;;5036962;28;20296;-87
2023/01/01 10:39:50;;;;;;;5.63;2.10;;;17.30;74.50;17.80;97082.00;;;;5035559;28;20215;-88
2023/01/01 10:42:17;;;;;;;21.50;3.57;;;17.50;74.40;17.90;97085.00;;;;5038319;28;20279;-88
2023/01/01 10:44:45;;;;;;;14.80;3.03;;;17.50;74.10;17.90;97080.00;;;;5036099;28;20307;-87
2023/01/01 10:47:31;;;;;;;7.97;2.30;;;17.60;73.50;17.90;97076.00;;;;5036214;28;20352;-87
2023/01/01 10:50:02;;;;;;;2.90;2.63;;;17.70;71.70;18.00;97081.00;;;;5035296;28;20589;-87
2023/01/01 10:52:35;;;;;;;2.63;2.43;;;17.70;72.30;18.00;97071.00;;;;5036707;28;20211;-88
2023/01/01 10:55:03;;;;;;;2.63;2.33;;;17.80;72.20;18.00;97073.00;;;;5036998;28;20220;-87
2023/01/01 10:57:38;;;;;;;2.70;2.30;;;17.80;71.10;18.00;97068.00;;;;5036825;28;20212;-88